createdAt,value
2022-08-19T00:01:28.642Z,87.50
2022-08-19T00:03:58.638Z,87.06
2022-08-19T00:06:26.150Z,85.22
2022-08-19T00:08:53.626Z,83.97
2022-08-19T00:11:26.052Z,84.63
2022-08-19T00:13:53.840Z,86.42
2022-08-19T00:16:26.166Z,87.63
2022-08-19T00:18:56.035Z,87.90
2022-08-19T00:21:23.817Z,88.22
2022-08-19T00:23:51.445Z,87.67
2022-08-19T00:26:18.959Z,88.21
2022-08-19T00:28:48.108Z,87.30
2022-08-19T00:31:17.205Z,87.51
2022-08-19T00:33:45.046Z,87.79
2022-08-19T00:36:12.881Z,87.88
2022-08-19T00:38:42.169Z,88.25
2022-08-19T00:41:10.188Z,88.15
2022-08-19T00:43:38.473Z,87.93
2022-08-19T00:46:07.391Z,87.60
2022-08-19T00:48:37.352Z,86.79
2022-08-19T00:51:07.462Z,87.24
2022-08-19T00:53:35.894Z,87.86
2022-08-19T00:56:07.014Z,87.90
2022-08-19T00:58:36.082Z,86.78
2022-08-19T01:01:05.434Z,86.29
2022-08-19T01:03:56.604Z,86.24
2022-08-19T01:06:21.958Z,86.09
2022-08-19T01:08:50.198Z,85.82
2022-08-19T01:11:18.031Z,86.14
2022-08-19T01:13:49.877Z,86.64
2022-08-19T01:16:19.605Z,87.25
2022-08-19T01:18:49.309Z,88.15
2022-08-19T01:21:24.421Z,88.58
2022-08-19T01:23:53.582Z,89.07
2022-08-19T01:26:23.931Z,89.15
2022-08-19T01:28:57.328Z,89.44
2022-08-19T01:31:31.352Z,89.33
2022-08-19T01:34:00.872Z,89.24
2022-08-19T01:36:30.528Z,89.25
2022-08-19T01:39:00.332Z,89.35
2022-08-19T01:41:27.893Z,89.62
2022-08-19T01:44:13.519Z,88.86
2022-08-19T01:46:44.862Z,88.65
2022-08-19T01:49:12.531Z,88.98
2022-08-19T01:51:40.677Z,89.14
2022-08-19T01:54:09.972Z,89.76
2022-08-19T01:56:37.773Z,90.27
2022-08-19T01:59:10.235Z,90.19
2022-08-19T02:01:37.838Z,89.43
2022-08-19T02:04:05.961Z,89.10
2022-08-19T02:06:33.932Z,89.21
2022-08-19T02:09:02.166Z,89.10
2022-08-19T02:11:34.324Z,89.30
2022-08-19T02:14:03.601Z,89.42
2022-08-19T02:16:31.812Z,90.09
2022-08-19T02:19:01.358Z,90.59
2022-08-19T02:21:29.884Z,91.03
2022-08-19T02:23:57.828Z,91.39
2022-08-19T02:26:27.317Z,91.72
2022-08-19T02:28:57.151Z,91.93
2022-08-19T02:31:26.866Z,92.07
2022-08-19T02:33:56.745Z,91.92
2022-08-19T02:36:26.235Z,91.48
2022-08-19T02:38:55.537Z,88.98
2022-08-19T02:41:26.599Z,87.51
2022-08-19T02:44:22.906Z,88.02
2022-08-19T02:46:44.308Z,89.20
2022-08-19T02:49:11.750Z,89.42
2022-08-19T02:51:46.140Z,89.92
2022-08-19T02:54:14.806Z,90.41
2022-08-19T02:56:44.101Z,90.76
2022-08-19T02:59:13.422Z,88.71
2022-08-19T03:01:43.168Z,87.45
2022-08-19T03:04:14.142Z,86.77
2022-08-19T03:06:43.732Z,87.11
2022-08-19T03:09:12.375Z,87.86
2022-08-19T03:11:40.640Z,87.91
2022-08-19T03:14:10.190Z,88.14
2022-08-19T03:16:43.714Z,88.29
2022-08-19T03:19:11.255Z,89.30
2022-08-19T03:21:38.745Z,89.88
2022-08-19T03:24:08.460Z,90.47
2022-08-19T03:26:36.219Z,90.77
2022-08-19T03:29:05.697Z,90.93
2022-08-19T03:31:43.456Z,90.95
2022-08-19T03:34:16.594Z,90.76
2022-08-19T03:36:44.168Z,90.56
2022-08-19T03:39:12.399Z,90.92
2022-08-19T03:41:44.991Z,90.66
2022-08-19T03:44:16.989Z,91.55
2022-08-19T03:46:47.921Z,91.08
2022-08-19T03:49:18.744Z,91.49
2022-08-19T03:51:48.823Z,91.64
2022-08-19T03:54:18.950Z,91.67
2022-08-19T03:56:48.443Z,91.37
2022-08-19T03:59:18.718Z,90.13
2022-08-19T04:01:46.608Z,88.95
2022-08-19T04:04:14.144Z,89.37
2022-08-19T04:06:44.856Z,90.19
2022-08-19T04:09:13.584Z,91.36
2022-08-19T04:11:44.963Z,91.73
2022-08-19T04:14:14.913Z,92.25
2022-08-19T04:16:43.551Z,92.66
2022-08-19T04:19:11.184Z,93.19
2022-08-19T04:21:38.781Z,92.82
2022-08-19T04:24:08.718Z,91.38
2022-08-19T04:26:38.591Z,89.52
2022-08-19T04:29:12.342Z,89.00
2022-08-19T04:31:42.048Z,89.65
2022-08-19T04:34:12.046Z,90.96
2022-08-19T04:36:43.238Z,92.63
2022-08-19T04:39:14.429Z,93.87
2022-08-19T04:41:59.734Z,94.12
2022-08-19T04:44:31.464Z,94.02
2022-08-19T04:47:01.366Z,92.78
2022-08-19T04:49:29.340Z,89.40
2022-08-19T04:51:56.891Z,88.84
2022-08-19T04:54:37.600Z,88.18
2022-08-19T04:57:08.406Z,88.40
2022-08-19T04:59:36.819Z,89.72
2022-08-19T05:02:05.363Z,90.45
2022-08-19T05:04:33.698Z,91.71
2022-08-19T05:07:02.490Z,92.26
2022-08-19T05:09:39.085Z,92.03
2022-08-19T05:12:20.252Z,90.47
2022-08-19T05:14:48.100Z,89.18
2022-08-19T05:17:37.529Z,88.63
2022-08-19T05:20:22.636Z,88.21
2022-08-19T05:22:50.199Z,88.52
2022-08-19T05:25:21.435Z,88.11
2022-08-19T05:27:49.847Z,86.58
2022-08-19T05:30:18.926Z,86.80
2022-08-19T05:33:01.299Z,86.00
2022-08-19T05:35:29.084Z,86.26
2022-08-19T05:38:02.507Z,86.87
2022-08-19T05:40:31.398Z,86.80
2022-08-19T05:42:59.469Z,87.22
2022-08-19T05:45:26.914Z,88.26
2022-08-19T05:47:54.794Z,89.28
2022-08-19T05:50:22.331Z,90.50
2022-08-19T05:52:50.190Z,92.74
2022-08-19T05:55:21.093Z,93.92
2022-08-19T05:57:49.984Z,94.07
2022-08-19T06:00:21.493Z,93.60
2022-08-19T06:02:52.495Z,92.97
2022-08-19T06:05:20.993Z,92.79
2022-08-19T06:07:48.515Z,92.47
2022-08-19T06:10:16.329Z,92.16
2022-08-19T06:12:43.800Z,91.83
2022-08-19T06:15:14.931Z,91.69
2022-08-19T06:17:45.134Z,91.36
2022-08-19T06:20:16.131Z,91.54
2022-08-19T06:22:45.668Z,91.39
2022-08-19T06:25:14.707Z,91.03
2022-08-19T06:28:11.455Z,90.52
2022-08-19T06:30:31.517Z,89.67
2022-08-19T06:32:59.637Z,89.29
2022-08-19T06:35:27.225Z,88.56
2022-08-19T06:37:54.945Z,87.59
2022-08-19T06:40:22.955Z,86.96
2022-08-19T06:42:54.786Z,85.72
2022-08-19T06:45:24.633Z,85.33
2022-08-19T06:47:59.287Z,83.20
2022-08-19T06:50:27.283Z,82.09
2022-08-19T06:52:56.350Z,82.15
2022-08-19T06:55:24.381Z,80.51
2022-08-19T06:57:54.540Z,79.20
2022-08-19T07:00:23.077Z,80.51
2022-08-19T07:02:59.406Z,77.43
2022-08-19T07:05:30.425Z,79.22
2022-08-19T07:08:02.861Z,77.90
2022-08-19T07:10:33.653Z,78.84
2022-08-19T07:13:01.225Z,77.69
2022-08-19T07:15:28.874Z,77.38
2022-08-19T07:17:56.695Z,77.08
2022-08-19T07:20:28.492Z,75.92
2022-08-19T07:22:58.298Z,76.58
2022-08-19T07:25:32.339Z,75.49
2022-08-19T07:28:01.548Z,74.31
2022-08-19T07:30:29.451Z,72.49
2022-08-19T07:32:59.282Z,72.25
2022-08-19T07:35:26.824Z,73.15
2022-08-19T07:37:54.508Z,71.69
2022-08-19T07:40:23.641Z,70.80
2022-08-19T07:42:51.111Z,70.87
2022-08-19T07:45:18.673Z,70.14
2022-08-19T07:47:48.810Z,66.59
2022-08-19T07:50:21.254Z,67.07
2022-08-19T07:52:50.317Z,66.78
2022-08-19T07:55:42.204Z,65.60
2022-08-19T07:58:09.777Z,66.28
2022-08-19T08:00:37.792Z,65.07
2022-08-19T08:03:05.391Z,65.36
2022-08-19T08:05:50.551Z,65.26
2022-08-19T08:08:43.859Z,64.34
2022-08-19T08:11:12.577Z,64.39
2022-08-19T08:13:45.052Z,64.16
2022-08-19T08:16:13.979Z,64.84
2022-08-19T08:18:43.142Z,64.19
2022-08-19T08:21:10.802Z,64.91
2022-08-19T08:23:39.813Z,64.99
2022-08-19T08:26:07.346Z,62.79
2022-08-19T08:28:34.933Z,64.36
2022-08-19T08:31:03.917Z,64.24
2022-08-19T08:33:37.270Z,65.71
2022-08-19T08:36:06.551Z,65.16
2022-08-19T08:38:39.649Z,63.73
2022-08-19T08:41:15.111Z,62.48
2022-08-19T08:43:44.351Z,63.33
2022-08-19T08:46:30.651Z,61.75
2022-08-19T08:49:08.347Z,62.22
2022-08-19T08:54:15.879Z,62.47
2022-08-19T08:56:45.356Z,62.22
2022-08-19T08:59:21.989Z,62.34
2022-08-19T09:01:50.990Z,60.86
2022-08-19T09:04:18.724Z,58.51
2022-08-19T09:06:53.686Z,58.28
2022-08-19T09:09:31.922Z,58.52
2022-08-19T09:12:11.831Z,58.37
2022-08-19T09:14:50.826Z,58.18
2022-08-19T09:17:32.005Z,58.42
2022-08-19T09:20:05.771Z,58.13
2022-08-19T09:22:37.474Z,58.39
2022-08-19T09:25:06.726Z,59.25
2022-08-19T09:27:42.919Z,60.42
2022-08-19T09:30:15.994Z,59.31
2022-08-19T09:32:46.160Z,59.75
2022-08-19T09:35:15.460Z,59.90
2022-08-19T09:37:43.650Z,58.66
2022-08-19T09:40:13.118Z,58.12
2022-08-19T09:42:50.257Z,58.12
2022-08-19T09:45:23.292Z,58.83
2022-08-19T09:47:54.259Z,58.69
2022-08-19T09:50:24.010Z,59.26
2022-08-19T09:52:55.311Z,58.66
2022-08-19T09:55:31.827Z,57.32
2022-08-19T09:58:03.932Z,58.05
2022-08-19T10:00:32.475Z,58.24
2022-08-19T10:03:01.462Z,58.77
2022-08-19T10:05:48.882Z,58.85
2022-08-19T10:08:18.258Z,58.38
2022-08-19T10:10:47.273Z,59.12
2022-08-19T10:13:16.063Z,58.65
2022-08-19T10:15:45.125Z,58.45
2022-08-19T10:18:18.645Z,58.09
2022-08-19T10:20:51.756Z,58.68
2022-08-19T10:23:21.985Z,57.71
2022-08-19T10:25:50.464Z,58.33
2022-08-19T10:28:19.249Z,54.60
2022-08-19T10:30:47.839Z,55.68
2022-08-19T10:33:38.717Z,53.52
2022-08-19T10:36:07.185Z,54.39
2022-08-19T10:38:35.604Z,55.14
2022-08-19T10:41:11.194Z,54.44
2022-08-19T10:43:40.536Z,54.18
2022-08-19T10:46:13.757Z,53.74
2022-08-19T10:48:46.169Z,53.51
2022-08-19T10:51:32.231Z,54.23
2022-08-19T10:54:00.639Z,52.40
2022-08-19T10:56:46.196Z,51.25
2022-08-19T10:59:15.019Z,51.93
2022-08-19T11:01:43.986Z,51.28
2022-08-19T11:04:14.449Z,50.78
2022-08-19T11:06:44.274Z,49.75
2022-08-19T11:09:12.749Z,48.17
2022-08-19T11:11:41.751Z,48.82
2022-08-19T11:14:10.682Z,46.74
2022-08-19T11:16:39.900Z,46.95
2022-08-19T11:19:09.177Z,45.42
2022-08-19T11:21:40.844Z,48.31
2022-08-19T11:24:11.106Z,49.05
2022-08-19T11:26:39.736Z,47.50
2022-08-19T11:29:12.436Z,47.47
2022-08-19T11:31:42.084Z,49.16
2022-08-19T11:34:12.301Z,49.39
2022-08-19T11:36:43.626Z,49.39
2022-08-19T11:39:13.991Z,48.52
2022-08-19T11:41:42.008Z,48.61
2022-08-19T11:44:09.700Z,48.86
2022-08-19T11:46:38.411Z,47.62
2022-08-19T11:49:13.794Z,50.44
2022-08-19T11:51:44.037Z,50.51
2022-08-19T11:54:13.608Z,50.75
2022-08-19T11:56:41.800Z,51.23
2022-08-19T11:59:14.071Z,50.17
2022-08-19T12:01:43.432Z,49.80
2022-08-19T12:04:11.303Z,50.18
2022-08-19T12:06:40.958Z,49.84
2022-08-19T12:09:11.384Z,48.54
2022-08-19T12:11:39.857Z,47.80
2022-08-19T12:14:07.878Z,47.18
2022-08-19T12:16:37.806Z,46.10
2022-08-19T12:19:08.742Z,44.54
2022-08-19T12:21:37.882Z,45.09
2022-08-19T12:24:08.339Z,44.68
2022-08-19T12:26:52.511Z,42.30
2022-08-19T12:29:23.685Z,42.91
2022-08-19T12:31:52.064Z,41.95
2022-08-19T12:34:20.880Z,41.63
2022-08-19T12:36:50.039Z,43.84
2022-08-19T12:39:17.530Z,45.51
2022-08-19T12:41:54.124Z,45.74
2022-08-19T12:44:29.542Z,43.16
2022-08-19T12:46:59.992Z,43.08
2022-08-19T12:49:53.791Z,42.22
2022-08-19T12:52:19.851Z,43.36
2022-08-19T12:54:53.965Z,43.73
2022-08-19T12:57:24.512Z,44.07
2022-08-19T13:00:00.081Z,44.54
2022-08-19T13:02:27.978Z,43.37
2022-08-19T13:04:55.460Z,42.79
2022-08-19T13:07:22.924Z,43.01
2022-08-19T13:09:53.200Z,41.70
2022-08-19T13:12:21.978Z,42.56
2022-08-19T13:14:54.059Z,41.92
2022-08-19T13:17:22.512Z,42.45
2022-08-19T13:19:51.106Z,44.28
2022-08-19T13:22:19.282Z,44.80
2022-08-19T13:24:47.520Z,45.24
2022-08-19T13:27:15.291Z,44.07
2022-08-19T13:30:01.079Z,44.42
2022-08-19T13:32:48.130Z,43.64
2022-08-19T13:35:19.532Z,45.38
2022-08-19T13:37:47.266Z,44.36
2022-08-19T13:40:19.839Z,43.16
2022-08-19T13:42:50.689Z,42.99
2022-08-19T13:45:20.872Z,43.20
2022-08-19T13:47:53.596Z,43.21
2022-08-19T13:50:25.764Z,41.94
2022-08-19T13:52:53.890Z,41.99
2022-08-19T13:55:24.555Z,42.11
2022-08-19T13:57:53.851Z,42.63
2022-08-19T14:00:22.878Z,44.17
2022-08-19T14:02:54.778Z,43.06
2022-08-19T14:05:22.904Z,41.86
2022-08-19T14:07:50.403Z,40.75
2022-08-19T14:10:19.685Z,42.87
2022-08-19T14:12:48.154Z,43.49
2022-08-19T14:15:16.214Z,43.84
2022-08-19T14:17:45.638Z,43.32
2022-08-19T14:20:17.616Z,41.29
2022-08-19T14:22:47.740Z,41.11
2022-08-19T14:25:18.911Z,41.83
2022-08-19T14:27:46.831Z,42.88
2022-08-19T14:30:16.731Z,42.69
2022-08-19T14:32:45.380Z,43.91
2022-08-19T14:35:16.357Z,44.01
2022-08-19T14:37:46.178Z,43.59
2022-08-19T14:40:15.133Z,43.85
2022-08-19T14:42:43.062Z,45.01
2022-08-19T14:45:11.873Z,46.36
2022-08-19T14:47:40.891Z,47.88
2022-08-19T14:50:10.443Z,48.50
2022-08-19T14:52:40.959Z,48.84
2022-08-19T14:55:09.280Z,48.78
2022-08-19T14:57:36.973Z,49.67
2022-08-19T15:00:05.662Z,49.52
2022-08-19T15:02:34.640Z,48.61
2022-08-19T15:05:03.116Z,49.67
2022-08-19T15:07:30.896Z,50.29
2022-08-19T15:10:00.196Z,50.92
2022-08-19T15:12:27.769Z,49.60
2022-08-19T15:14:56.340Z,48.17
2022-08-19T15:17:43.294Z,48.71
2022-08-19T15:20:14.452Z,48.10
2022-08-19T15:22:42.587Z,48.28
2022-08-19T15:25:15.706Z,48.52
2022-08-19T15:27:44.279Z,47.87
2022-08-19T15:30:13.780Z,46.19
2022-08-19T15:32:41.478Z,46.70
2022-08-19T15:35:09.571Z,47.47
2022-08-19T15:37:37.691Z,48.70
2022-08-19T15:40:07.349Z,50.98
2022-08-19T15:42:37.299Z,51.47
2022-08-19T15:45:05.342Z,51.92
2022-08-19T15:47:34.542Z,52.45
2022-08-19T15:50:10.512Z,53.68
2022-08-19T15:52:46.789Z,53.52
2022-08-19T15:55:19.966Z,54.65
2022-08-19T15:58:29.029Z,55.11
2022-08-19T16:01:15.346Z,55.24
2022-08-19T16:04:01.392Z,55.46
2022-08-19T16:06:31.310Z,56.18
2022-08-19T16:09:01.765Z,56.52
2022-08-19T16:11:32.136Z,56.35
2022-08-19T16:14:02.676Z,56.52
2022-08-19T16:16:34.107Z,57.27
2022-08-19T16:19:03.837Z,57.38
2022-08-19T16:21:33.087Z,57.23
2022-08-19T16:24:02.737Z,57.23
2022-08-19T16:26:31.062Z,57.85
2022-08-19T16:29:01.367Z,58.77
2022-08-19T16:31:29.458Z,58.60
2022-08-19T16:33:57.339Z,58.85
2022-08-19T16:36:25.019Z,59.53
2022-08-19T16:38:53.315Z,60.73
2022-08-19T16:41:21.426Z,60.26
2022-08-19T16:43:52.477Z,60.96
2022-08-19T16:46:22.633Z,60.83
2022-08-19T16:48:50.879Z,60.69
2022-08-19T16:51:18.645Z,61.61
2022-08-19T16:53:46.206Z,61.17
2022-08-19T16:56:13.988Z,60.89
2022-08-19T16:58:42.568Z,61.79
2022-08-19T17:01:11.128Z,62.02
2022-08-19T17:03:40.296Z,62.17
2022-08-19T17:06:15.854Z,62.49
2022-08-19T17:08:48.692Z,62.67
2022-08-19T17:11:18.685Z,62.10
2022-08-19T17:13:47.664Z,62.10
2022-08-19T17:16:16.082Z,61.87
2022-08-19T17:18:44.969Z,62.10
2022-08-19T17:21:13.233Z,61.97
2022-08-19T17:23:43.471Z,62.03
2022-08-19T17:26:11.535Z,61.37
2022-08-19T17:28:45.324Z,61.76
2022-08-19T17:31:13.156Z,62.15
2022-08-19T17:33:41.099Z,61.72
2022-08-19T17:36:10.428Z,62.20
2022-08-19T17:38:39.224Z,62.41
2022-08-19T17:41:07.455Z,63.01
2022-08-19T17:43:41.298Z,62.56
2022-08-19T17:46:18.279Z,62.81
2022-08-19T17:48:51.927Z,62.70
2022-08-19T17:51:24.503Z,62.45
2022-08-19T17:53:54.532Z,62.64
2022-08-19T17:56:23.419Z,62.50
2022-08-19T17:58:54.389Z,62.10
2022-08-19T18:01:29.503Z,62.51
2022-08-19T18:04:16.882Z,62.67
2022-08-19T18:06:50.250Z,62.42
2022-08-19T18:09:20.969Z,62.62
2022-08-19T18:11:53.034Z,62.69
2022-08-19T18:14:20.972Z,63.08
2022-08-19T18:16:48.483Z,63.80
2022-08-19T18:19:16.004Z,63.76
2022-08-19T18:21:44.882Z,63.49
2022-08-19T18:24:12.551Z,64.22
2022-08-19T18:26:40.285Z,64.48
2022-08-19T18:29:09.218Z,64.65
2022-08-19T18:31:38.581Z,64.67
2022-08-19T18:34:09.926Z,65.05
2022-08-19T18:36:53.535Z,65.59
2022-08-19T18:39:44.241Z,65.84
2022-08-19T18:42:32.735Z,66.21
2022-08-19T18:45:18.147Z,66.88
2022-08-19T18:48:03.420Z,67.09
2022-08-19T18:50:31.087Z,67.15
2022-08-19T18:52:58.616Z,67.75
2022-08-19T18:55:29.168Z,67.83
2022-08-19T18:57:56.929Z,67.74
2022-08-19T19:00:25.211Z,68.25
2022-08-19T19:02:54.474Z,68.54
2022-08-19T19:05:22.873Z,69.20
2022-08-19T19:07:50.475Z,69.33
2022-08-19T19:10:18.094Z,69.51
2022-08-19T19:12:47.668Z,69.49
2022-08-19T19:15:15.174Z,69.84
2022-08-19T19:17:42.705Z,70.08
2022-08-19T19:20:10.283Z,70.32
2022-08-19T19:22:37.814Z,70.32
2022-08-19T19:25:06.545Z,70.28
2022-08-19T19:27:34.030Z,70.61
2022-08-19T19:30:02.898Z,70.56
2022-08-19T19:32:38.967Z,70.86
2022-08-19T19:35:09.740Z,71.48
2022-08-19T19:37:37.355Z,71.22
2022-08-19T19:40:05.482Z,71.06
2022-08-19T19:42:33.031Z,71.72
2022-08-19T19:45:01.962Z,72.32
2022-08-19T19:47:31.122Z,73.79
2022-08-19T19:50:15.588Z,75.62
2022-08-19T19:52:46.554Z,78.03
2022-08-19T19:55:17.942Z,78.95
2022-08-19T19:57:46.201Z,80.45
2022-08-19T20:00:16.304Z,80.95
2022-08-19T20:02:49.274Z,81.88
2022-08-19T20:05:19.144Z,82.57
2022-08-19T20:08:04.401Z,83.14
2022-08-19T20:10:32.444Z,83.33
2022-08-19T20:13:02.221Z,83.15
2022-08-19T20:15:30.881Z,83.32
2022-08-19T20:18:00.825Z,83.40
2022-08-19T20:20:28.363Z,84.01
2022-08-19T20:22:55.936Z,85.03
2022-08-19T20:25:23.454Z,85.78
2022-08-19T20:27:51.159Z,86.01
2022-08-19T20:30:21.639Z,86.70
2022-08-19T20:32:51.353Z,86.92
2022-08-19T20:35:22.120Z,87.36
2022-08-19T20:37:52.853Z,87.21
2022-08-19T20:40:23.543Z,87.15
2022-08-19T20:42:51.398Z,86.93
2022-08-19T20:45:32.895Z,87.44
2022-08-19T20:48:02.215Z,87.62
2022-08-19T20:50:31.425Z,88.18
2022-08-19T20:52:59.359Z,88.37
2022-08-19T20:55:28.245Z,88.62
2022-08-19T20:57:56.445Z,88.74
2022-08-19T21:00:24.116Z,88.65
2022-08-19T21:02:51.564Z,88.86
2022-08-19T21:05:19.032Z,88.89
2022-08-19T21:07:47.843Z,89.03
2022-08-19T21:10:15.329Z,89.31
2022-08-19T21:12:44.273Z,89.95
2022-08-19T21:15:12.394Z,90.06
2022-08-19T21:17:39.943Z,89.82
2022-08-19T21:20:09.539Z,90.10
2022-08-19T21:22:37.091Z,90.12
2022-08-19T21:25:07.095Z,90.12
2022-08-19T21:27:34.659Z,90.13
2022-08-19T21:30:02.142Z,90.11
2022-08-19T21:32:29.623Z,90.18
2022-08-19T21:34:57.303Z,89.94
2022-08-19T21:37:26.137Z,89.65
2022-08-19T21:39:54.174Z,89.89
2022-08-19T21:42:23.414Z,89.87
2022-08-19T21:44:50.988Z,89.76
2022-08-19T21:47:18.505Z,90.11
2022-08-19T21:49:46.016Z,90.27
2022-08-19T21:52:13.773Z,89.75
2022-08-19T21:54:41.649Z,89.88
2022-08-19T21:57:10.507Z,89.83
2022-08-19T21:59:43.519Z,90.04
2022-08-19T22:02:19.972Z,89.81
2022-08-19T22:04:49.061Z,90.23
2022-08-19T22:07:16.691Z,90.11
2022-08-19T22:09:45.410Z,90.02
2022-08-19T22:12:23.855Z,90.20
2022-08-19T22:14:53.760Z,90.22
2022-08-19T22:17:22.308Z,89.95
2022-08-19T22:19:50.822Z,89.90
2022-08-19T22:22:23.998Z,89.76
2022-08-19T22:24:51.772Z,89.92
2022-08-19T22:27:20.179Z,89.93
2022-08-19T22:29:48.051Z,90.09
2022-08-19T22:32:27.891Z,90.34
2022-08-19T22:34:59.226Z,90.30
2022-08-19T22:37:27.608Z,90.33
2022-08-19T22:39:55.521Z,90.39
2022-08-19T22:42:24.647Z,90.61
2022-08-19T22:44:53.144Z,90.38
2022-08-19T22:47:23.376Z,90.54
2022-08-19T22:49:54.612Z,90.59
2022-08-19T22:52:21.960Z,90.32
2022-08-19T22:54:51.339Z,90.42
2022-08-19T22:57:20.344Z,90.42
2022-08-19T22:59:49.451Z,90.11
2022-08-19T23:02:19.183Z,90.28
2022-08-19T23:04:48.779Z,90.12
2022-08-19T23:07:16.528Z,89.99
2022-08-19T23:09:44.518Z,89.60
2022-08-19T23:12:13.763Z,90.04
2022-08-19T23:14:41.477Z,90.27
2022-08-19T23:17:09.402Z,90.58
2022-08-19T23:19:38.342Z,90.73
2022-08-19T23:22:08.255Z,90.60
2022-08-19T23:24:35.721Z,90.59
2022-08-19T23:27:21.144Z,90.78
2022-08-19T23:30:08.179Z,90.31
2022-08-19T23:32:36.395Z,90.45
2022-08-19T23:35:04.530Z,91.16
2022-08-19T23:37:33.373Z,90.71
2022-08-19T23:40:01.236Z,90.79
2022-08-19T23:42:28.844Z,90.76
2022-08-19T23:45:01.225Z,91.07
2022-08-19T23:47:29.283Z,91.16
2022-08-19T23:49:57.923Z,91.62
2022-08-19T23:52:26.143Z,92.04
2022-08-19T23:54:55.179Z,92.48
2022-08-19T23:57:22.933Z,92.66
2022-08-19T23:59:50.418Z,92.85
